sensor_id;sensor_type;location;lat;lon;timestamp;temperature;humidity
71039;SHT30;58692;43.212;27.908;2023-07-20T00:01:35;26.82;73.94
71039;SHT30;58692;43.212;27.908;2023-07-20T00:04:00;26.85;73.80
71039;SHT30;58692;43.212;27.908;2023-07-20T00:06:26;26.86;74.01
71039;SHT30;58692;43.212;27.908;2023-07-20T00:08:53;26.88;73.84
71039;SHT30;58692;43.212;27.908;2023-07-20T00:11:21;26.85;74.49
71039;SHT30;58692;43.212;27.908;2023-07-20T00:13:46;26.82;74.51
71039;SHT30;58692;43.212;27.908;2023-07-20T00:16:12;26.69;74.86
71039;SHT30;58692;43.212;27.908;2023-07-20T00:18:37;26.51;75.23
71039;SHT30;58692;43.212;27.908;2023-07-20T00:21:03;26.56;75.02
71039;SHT30;58692;43.212;27.908;2023-07-20T00:23:29;26.63;74.74
71039;SHT30;58692;43.212;27.908;2023-07-20T00:25:55;26.63;74.58
71039;SHT30;58692;43.212;27.908;2023-07-20T00:28:20;26.65;74.54
71039;SHT30;58692;43.212;27.908;2023-07-20T00:30:46;26.62;74.33
71039;SHT30;58692;43.212;27.908;2023-07-20T00:33:12;26.65;74.01
71039;SHT30;58692;43.212;27.908;2023-07-20T00:35:38;26.62;73.84
71039;SHT30;58692;43.212;27.908;2023-07-20T00:38:05;26.63;73.70
71039;SHT30;58692;43.212;27.908;2023-07-20T00:40:41;26.62;73.58
71039;SHT30;58692;43.212;27.908;2023-07-20T00:43:07;26.58;73.25
71039;SHT30;58692;43.212;27.908;2023-07-20T00:45:33;26.55;73.29
71039;SHT30;58692;43.212;27.908;2023-07-20T00:48:01;26.48;73.36
71039;SHT30;58692;43.212;27.908;2023-07-20T00:50:27;26.51;73.46
71039;SHT30;58692;43.212;27.908;2023-07-20T00:52:57;26.51;73.39
71039;SHT30;58692;43.212;27.908;2023-07-20T00:55:24;26.48;73.18
71039;SHT30;58692;43.212;27.908;2023-07-20T00:57:50;26.45;72.70
71039;SHT30;58692;43.212;27.908;2023-07-20T01:00:17;26.44;73.00
71039;SHT30;58692;43.212;27.908;2023-07-20T01:02:42;26.47;72.76
71039;SHT30;58692;43.212;27.908;2023-07-20T01:05:08;26.40;72.99
71039;SHT30;58692;43.212;27.908;2023-07-20T01:07:37;26.47;72.86
71039;SHT30;58692;43.212;27.908;2023-07-20T01:13:00;26.37;72.94
71039;SHT30;58692;43.212;27.908;2023-07-20T01:15:27;26.32;73.13
71039;SHT30;58692;43.212;27.908;2023-07-20T01:17:52;26.17;73.28
71039;SHT30;58692;43.212;27.908;2023-07-20T01:20:19;26.17;73.75
71039;SHT30;58692;43.212;27.908;2023-07-20T01:22:59;26.25;73.71
71039;SHT30;58692;43.212;27.908;2023-07-20T01:31:24;26.13;75.29
71039;SHT30;58692;43.212;27.908;2023-07-20T01:33:53;26.04;77.32
71039;SHT30;58692;43.212;27.908;2023-07-20T01:36:21;25.86;78.52
71039;SHT30;58692;43.212;27.908;2023-07-20T01:38:48;25.62;79.11
71039;SHT30;58692;43.212;27.908;2023-07-20T01:41:14;25.51;78.67
71039;SHT30;58692;43.212;27.908;2023-07-20T01:43:40;25.45;78.26
71039;SHT30;58692;43.212;27.908;2023-07-20T01:46:06;25.36;78.48
71039;SHT30;58692;43.212;27.908;2023-07-20T01:48:31;25.12;79.29
71039;SHT30;58692;43.212;27.908;2023-07-20T01:50:57;25.11;79.49
71039;SHT30;58692;43.212;27.908;2023-07-20T01:53:22;24.99;80.29
71039;SHT30;58692;43.212;27.908;2023-07-20T01:55:48;24.75;81.18
71039;SHT30;58692;43.212;27.908;2023-07-20T01:58:13;24.84;80.43
71039;SHT30;58692;43.212;27.908;2023-07-20T02:00:39;24.76;80.92
71039;SHT30;58692;43.212;27.908;2023-07-20T02:03:04;24.67;81.31
71039;SHT30;58692;43.212;27.908;2023-07-20T02:05:30;24.72;80.93
71039;SHT30;58692;43.212;27.908;2023-07-20T02:07:55;24.71;80.99
71039;SHT30;58692;43.212;27.908;2023-07-20T02:10:21;24.79;80.35
71039;SHT30;58692;43.212;27.908;2023-07-20T02:12:47;24.81;80.17
71039;SHT30;58692;43.212;27.908;2023-07-20T02:15:14;24.89;79.56
71039;SHT30;58692;43.212;27.908;2023-07-20T02:17:42;24.96;78.54
71039;SHT30;58692;43.212;27.908;2023-07-20T02:20:08;24.99;77.59
71039;SHT30;58692;43.212;27.908;2023-07-20T02:22:36;25.01;77.03
71039;SHT30;58692;43.212;27.908;2023-07-20T02:25:03;25.06;76.34
71039;SHT30;58692;43.212;27.908;2023-07-20T02:27:29;25.12;75.90
71039;SHT30;58692;43.212;27.908;2023-07-20T02:29:54;25.19;75.28
71039;SHT30;58692;43.212;27.908;2023-07-20T02:32:20;25.22;74.39
71039;SHT30;58692;43.212;27.908;2023-07-20T02:34:45;25.25;74.16
71039;SHT30;58692;43.212;27.908;2023-07-20T02:37:11;25.25;73.87
71039;SHT30;58692;43.212;27.908;2023-07-20T02:39:39;25.29;73.82
71039;SHT30;58692;43.212;27.908;2023-07-20T02:42:04;25.33;73.37
71039;SHT30;58692;43.212;27.908;2023-07-20T02:44:30;25.37;73.30
71039;SHT30;58692;43.212;27.908;2023-07-20T02:46:55;25.36;73.27
71039;SHT30;58692;43.212;27.908;2023-07-20T02:49:21;25.32;73.24
71039;SHT30;58692;43.212;27.908;2023-07-20T02:51:46;25.29;73.31
71039;SHT30;58692;43.212;27.908;2023-07-20T02:54:12;25.25;73.43
71039;SHT30;58692;43.212;27.908;2023-07-20T02:56:37;25.25;73.36
71039;SHT30;58692;43.212;27.908;2023-07-20T02:59:03;25.27;73.34
71039;SHT30;58692;43.212;27.908;2023-07-20T03:01:29;25.36;73.07
71039;SHT30;58692;43.212;27.908;2023-07-20T03:03:55;25.26;73.26
71039;SHT30;58692;43.212;27.908;2023-07-20T03:06:21;25.36;73.07
71039;SHT30;58692;43.212;27.908;2023-07-20T03:08:47;25.30;73.11
71039;SHT30;58692;43.212;27.908;2023-07-20T03:11:15;25.30;72.86
71039;SHT30;58692;43.212;27.908;2023-07-20T03:13:41;25.29;72.78
71039;SHT30;58692;43.212;27.908;2023-07-20T03:16:08;25.37;72.47
71039;SHT30;58692;43.212;27.908;2023-07-20T03:18:37;25.51;72.07
71039;SHT30;58692;43.212;27.908;2023-07-20T03:21:04;25.56;71.81
71039;SHT30;58692;43.212;27.908;2023-07-20T03:23:30;25.60;71.44
71039;SHT30;58692;43.212;27.908;2023-07-20T03:25:55;25.59;71.25
71039;SHT30;58692;43.212;27.908;2023-07-20T03:28:21;25.65;71.13
71039;SHT30;58692;43.212;27.908;2023-07-20T03:30:46;25.70;71.05
71039;SHT30;58692;43.212;27.908;2023-07-20T03:33:12;25.74;70.89
71039;SHT30;58692;43.212;27.908;2023-07-20T03:35:37;25.87;70.68
71039;SHT30;58692;43.212;27.908;2023-07-20T03:38:04;25.87;70.55
71039;SHT30;58692;43.212;27.908;2023-07-20T03:40:30;25.93;70.34
71039;SHT30;58692;43.212;27.908;2023-07-20T03:42:55;26.14;69.90
71039;SHT30;58692;43.212;27.908;2023-07-20T03:45:21;26.25;69.58
71039;SHT30;58692;43.212;27.908;2023-07-20T03:47:49;26.38;69.23
71039;SHT30;58692;43.212;27.908;2023-07-20T03:50:14;26.51;68.80
71039;SHT30;58692;43.212;27.908;2023-07-20T03:52:40;26.42;68.37
71039;SHT30;58692;43.212;27.908;2023-07-20T03:55:06;26.34;68.44
71039;SHT30;58692;43.212;27.908;2023-07-20T03:57:32;26.42;68.37
71039;SHT30;58692;43.212;27.908;2023-07-20T03:59:58;26.59;68.01
71039;SHT30;58692;43.212;27.908;2023-07-20T04:02:24;26.73;67.55
71039;SHT30;58692;43.212;27.908;2023-07-20T04:04:49;26.76;67.29
71039;SHT30;58692;43.212;27.908;2023-07-20T04:07:15;26.95;66.83
71039;SHT30;58692;43.212;27.908;2023-07-20T04:09:40;26.88;67.00
71039;SHT30;58692;43.212;27.908;2023-07-20T04:12:06;26.75;67.27
71039;SHT30;58692;43.212;27.908;2023-07-20T04:14:31;26.41;67.54
71039;SHT30;58692;43.212;27.908;2023-07-20T04:16:57;26.41;67.70
71039;SHT30;58692;43.212;27.908;2023-07-20T04:19:22;26.31;68.01
71039;SHT30;58692;43.212;27.908;2023-07-20T04:21:48;26.30;67.41
71039;SHT30;58692;43.212;27.908;2023-07-20T04:24:13;26.30;67.53
71039;SHT30;58692;43.212;27.908;2023-07-20T04:26:39;26.18;67.47
71039;SHT30;58692;43.212;27.908;2023-07-20T04:29:04;26.28;67.98
71039;SHT30;58692;43.212;27.908;2023-07-20T04:31:30;26.40;67.32
71039;SHT30;58692;43.212;27.908;2023-07-20T04:33:58;26.31;66.70
71039;SHT30;58692;43.212;27.908;2023-07-20T04:36:23;26.30;66.95
71039;SHT30;58692;43.212;27.908;2023-07-20T04:38:49;26.31;66.94
71039;SHT30;58692;43.212;27.908;2023-07-20T04:41:14;26.40;67.44
71039;SHT30;58692;43.212;27.908;2023-07-20T04:43:42;26.51;67.17
71039;SHT30;58692;43.212;27.908;2023-07-20T04:46:10;26.55;66.98
71039;SHT30;58692;43.212;27.908;2023-07-20T04:48:35;27.29;64.96
71039;SHT30;58692;43.212;27.908;2023-07-20T04:51:02;27.91;63.12
71039;SHT30;58692;43.212;27.908;2023-07-20T04:53:27;28.42;62.08
71039;SHT30;58692;43.212;27.908;2023-07-20T04:55:53;28.69;61.46
71039;SHT30;58692;43.212;27.908;2023-07-20T04:58:20;29.16;60.24
71039;SHT30;58692;43.212;27.908;2023-07-20T05:00:48;29.34;59.30
71039;SHT30;58692;43.212;27.908;2023-07-20T05:03:14;29.70;58.56
71039;SHT30;58692;43.212;27.908;2023-07-20T05:05:39;29.82;58.24
71039;SHT30;58692;43.212;27.908;2023-07-20T05:08:05;30.05;57.71
71039;SHT30;58692;43.212;27.908;2023-07-20T05:10:30;30.56;56.69
71039;SHT30;58692;43.212;27.908;2023-07-20T05:12:56;30.94;55.59
71039;SHT30;58692;43.212;27.908;2023-07-20T05:15:22;31.14;55.38
71039;SHT30;58692;43.212;27.908;2023-07-20T05:17:47;31.00;55.03
71039;SHT30;58692;43.212;27.908;2023-07-20T05:20:14;31.04;54.87
71039;SHT30;58692;43.212;27.908;2023-07-20T05:22:40;31.00;54.72
71039;SHT30;58692;43.212;27.908;2023-07-20T05:25:07;31.16;54.63
71039;SHT30;58692;43.212;27.908;2023-07-20T05:27:34;31.35;53.77
71039;SHT30;58692;43.212;27.908;2023-07-20T05:30:00;31.57;53.79
71039;SHT30;58692;43.212;27.908;2023-07-20T05:32:25;31.33;54.26
71039;SHT30;58692;43.212;27.908;2023-07-20T05:34:53;31.20;54.06
71039;SHT30;58692;43.212;27.908;2023-07-20T05:37:19;31.77;53.21
71039;SHT30;58692;43.212;27.908;2023-07-20T05:39:45;31.79;53.21
71039;SHT30;58692;43.212;27.908;2023-07-20T05:42:10;31.67;53.35
71039;SHT30;58692;43.212;27.908;2023-07-20T05:44:36;32.12;52.48
71039;SHT30;58692;43.212;27.908;2023-07-20T05:47:01;31.57;53.35
71039;SHT30;58692;43.212;27.908;2023-07-20T05:49:28;31.77;53.14
71039;SHT30;58692;43.212;27.908;2023-07-20T05:51:54;31.82;53.10
71039;SHT30;58692;43.212;27.908;2023-07-20T05:54:21;31.58;53.64
71039;SHT30;58692;43.212;27.908;2023-07-20T05:56:46;31.86;53.82
71039;SHT30;58692;43.212;27.908;2023-07-20T05:59:12;32.04;53.74
71039;SHT30;58692;43.212;27.908;2023-07-20T06:01:38;31.79;53.90
71039;SHT30;58692;43.212;27.908;2023-07-20T06:04:04;32.08;53.55
71039;SHT30;58692;43.212;27.908;2023-07-20T06:06:29;31.98;53.71
71039;SHT30;58692;43.212;27.908;2023-07-20T06:08:55;31.99;53.45
71039;SHT30;58692;43.212;27.908;2023-07-20T06:11:20;31.86;53.02
71039;SHT30;58692;43.212;27.908;2023-07-20T06:13:46;32.10;52.18
71039;SHT30;58692;43.212;27.908;2023-07-20T06:16:11;32.50;51.68
71039;SHT30;58692;43.212;27.908;2023-07-20T06:18:37;32.35;51.96
71039;SHT30;58692;43.212;27.908;2023-07-20T06:21:03;32.26;52.67
71039;SHT30;58692;43.212;27.908;2023-07-20T06:23:28;32.55;51.91
71039;SHT30;58692;43.212;27.908;2023-07-20T06:25:54;32.29;52.70
71039;SHT30;58692;43.212;27.908;2023-07-20T06:28:19;31.67;53.82
71039;SHT30;58692;43.212;27.908;2023-07-20T06:30:45;31.17;54.72
71039;SHT30;58692;43.212;27.908;2023-07-20T06:33:10;30.98;55.81
71039;SHT30;58692;43.212;27.908;2023-07-20T06:35:36;30.87;55.56
71039;SHT30;58692;43.212;27.908;2023-07-20T06:38:02;30.70;54.64
71039;SHT30;58692;43.212;27.908;2023-07-20T06:40:32;30.42;53.02
71039;SHT30;58692;43.212;27.908;2023-07-20T06:42:57;30.23;52.61
71039;SHT30;58692;43.212;27.908;2023-07-20T06:45:23;30.13;52.64
71039;SHT30;58692;43.212;27.908;2023-07-20T06:47:48;29.93;52.16
71039;SHT30;58692;43.212;27.908;2023-07-20T06:50:14;29.92;52.54
71039;SHT30;58692;43.212;27.908;2023-07-20T06:52:39;29.82;52.53
71039;SHT30;58692;43.212;27.908;2023-07-20T06:55:06;29.82;52.50
71039;SHT30;58692;43.212;27.908;2023-07-20T06:57:32;29.78;52.65
71039;SHT30;58692;43.212;27.908;2023-07-20T06:59:57;29.85;53.53
71039;SHT30;58692;43.212;27.908;2023-07-20T07:02:23;29.78;56.54
71039;SHT30;58692;43.212;27.908;2023-07-20T07:04:48;29.74;56.50
71039;SHT30;58692;43.212;27.908;2023-07-20T07:07:14;29.71;59.51
71039;SHT30;58692;43.212;27.908;2023-07-20T07:09:40;29.67;60.46
71039;SHT30;58692;43.212;27.908;2023-07-20T07:12:06;29.67;60.45
71039;SHT30;58692;43.212;27.908;2023-07-20T07:14:32;29.55;61.52
71039;SHT30;58692;43.212;27.908;2023-07-20T07:16:57;29.13;60.61
71039;SHT30;58692;43.212;27.908;2023-07-20T07:19:23;29.07;58.37
71039;SHT30;58692;43.212;27.908;2023-07-20T07:21:48;28.83;65.63
71039;SHT30;58692;43.212;27.908;2023-07-20T07:24:13;28.99;60.71
71039;SHT30;58692;43.212;27.908;2023-07-20T07:26:39;29.11;60.69
71039;SHT30;58692;43.212;27.908;2023-07-20T07:29:05;29.50;58.84
71039;SHT30;58692;43.212;27.908;2023-07-20T07:31:34;29.43;58.75
71039;SHT30;58692;43.212;27.908;2023-07-20T07:34:01;29.47;59.29
71039;SHT30;58692;43.212;27.908;2023-07-20T07:36:27;29.44;57.73
71039;SHT30;58692;43.212;27.908;2023-07-20T07:38:53;29.70;56.56
71039;SHT30;58692;43.212;27.908;2023-07-20T07:41:18;29.92;56.13
71039;SHT30;58692;43.212;27.908;2023-07-20T07:43:44;30.18;55.70
71039;SHT30;58692;43.212;27.908;2023-07-20T07:46:09;30.28;55.68
71039;SHT30;58692;43.212;27.908;2023-07-20T07:48:35;31.01;54.71
71039;SHT30;58692;43.212;27.908;2023-07-20T07:51:00;30.59;55.16
71039;SHT30;58692;43.212;27.908;2023-07-20T07:53:25;30.67;54.55
71039;SHT30;58692;43.212;27.908;2023-07-20T07:55:51;31.34;52.27
71039;SHT30;58692;43.212;27.908;2023-07-20T07:58:17;30.88;52.03
71039;SHT30;58692;43.212;27.908;2023-07-20T08:00:42;30.91;51.96
71039;SHT30;58692;43.212;27.908;2023-07-20T08:03:09;30.86;51.11
71039;SHT30;58692;43.212;27.908;2023-07-20T08:05:35;30.39;52.19
71039;SHT30;58692;43.212;27.908;2023-07-20T08:08:02;30.36;52.66
71039;SHT30;58692;43.212;27.908;2023-07-20T08:10:29;30.25;52.01
71039;SHT30;58692;43.212;27.908;2023-07-20T08:12:54;30.19;52.23
71039;SHT30;58692;43.212;27.908;2023-07-20T08:15:20;30.25;52.16
71039;SHT30;58692;43.212;27.908;2023-07-20T08:17:45;30.23;52.26
71039;SHT30;58692;43.212;27.908;2023-07-20T08:20:12;30.23;52.70
71039;SHT30;58692;43.212;27.908;2023-07-20T08:22:38;30.21;52.88
71039;SHT30;58692;43.212;27.908;2023-07-20T08:25:06;30.18;52.89
71039;SHT30;58692;43.212;27.908;2023-07-20T08:27:32;30.21;52.41
71039;SHT30;58692;43.212;27.908;2023-07-20T08:29:57;30.26;52.38
71039;SHT30;58692;43.212;27.908;2023-07-20T08:32:23;30.66;51.61
71039;SHT30;58692;43.212;27.908;2023-07-20T08:34:48;31.06;50.44
71039;SHT30;58692;43.212;27.908;2023-07-20T08:37:14;31.23;50.31
71039;SHT30;58692;43.212;27.908;2023-07-20T08:39:39;31.49;49.81
71039;SHT30;58692;43.212;27.908;2023-07-20T08:42:05;31.48;50.01
71039;SHT30;58692;43.212;27.908;2023-07-20T08:44:33;31.57;50.28
71039;SHT30;58692;43.212;27.908;2023-07-20T08:47:00;31.57;50.65
71039;SHT30;58692;43.212;27.908;2023-07-20T08:49:27;31.01;52.22
71039;SHT30;58692;43.212;27.908;2023-07-20T08:51:53;31.41;51.89
71039;SHT30;58692;43.212;27.908;2023-07-20T08:54:19;31.47;51.05
71039;SHT30;58692;43.212;27.908;2023-07-20T08:56:45;31.30;51.71
71039;SHT30;58692;43.212;27.908;2023-07-20T08:59:15;32.94;48.73
71039;SHT30;58692;43.212;27.908;2023-07-20T09:01:42;33.50;47.33
71039;SHT30;58692;43.212;27.908;2023-07-20T09:04:08;35.07;44.72
71039;SHT30;58692;43.212;27.908;2023-07-20T09:06:35;35.31;43.81
71039;SHT30;58692;43.212;27.908;2023-07-20T09:09:00;34.93;44.30
71039;SHT30;58692;43.212;27.908;2023-07-20T09:11:26;35.25;43.09
71039;SHT30;58692;43.212;27.908;2023-07-20T09:14:07;35.82;41.57
71039;SHT30;58692;43.212;27.908;2023-07-20T09:16:46;36.29;40.87
71039;SHT30;58692;43.212;27.908;2023-07-20T09:19:15;37.04;39.61
71039;SHT30;58692;43.212;27.908;2023-07-20T09:21:40;36.22;40.16
71039;SHT30;58692;43.212;27.908;2023-07-20T09:24:06;36.29;39.97
71039;SHT30;58692;43.212;27.908;2023-07-20T09:26:40;36.23;39.90
71039;SHT30;58692;43.212;27.908;2023-07-20T09:29:07;37.46;38.51
71039;SHT30;58692;43.212;27.908;2023-07-20T09:31:33;37.72;38.68
71039;SHT30;58692;43.212;27.908;2023-07-20T09:33:59;38.06;37.60
71039;SHT30;58692;43.212;27.908;2023-07-20T09:36:27;37.85;37.71
71039;SHT30;58692;43.212;27.908;2023-07-20T09:38:53;37.52;38.15
71039;SHT30;58692;43.212;27.908;2023-07-20T09:41:20;37.49;38.52
71039;SHT30;58692;43.212;27.908;2023-07-20T09:43:46;37.68;38.07
71039;SHT30;58692;43.212;27.908;2023-07-20T09:46:12;37.51;38.14
71039;SHT30;58692;43.212;27.908;2023-07-20T09:48:37;37.06;39.10
71039;SHT30;58692;43.212;27.908;2023-07-20T09:51:03;37.65;38.42
71039;SHT30;58692;43.212;27.908;2023-07-20T09:53:32;37.58;38.56
71039;SHT30;58692;43.212;27.908;2023-07-20T09:55:58;38.01;37.87
71039;SHT30;58692;43.212;27.908;2023-07-20T09:58:25;37.88;36.48
71039;SHT30;58692;43.212;27.908;2023-07-20T10:00:52;38.49;35.96
71039;SHT30;58692;43.212;27.908;2023-07-20T10:03:19;38.47;35.72
71039;SHT30;58692;43.212;27.908;2023-07-20T10:05:54;38.33;35.92
71039;SHT30;58692;43.212;27.908;2023-07-20T10:08:24;38.36;36.39
71039;SHT30;58692;43.212;27.908;2023-07-20T10:10:50;37.42;37.16
71039;SHT30;58692;43.212;27.908;2023-07-20T10:13:18;37.57;36.95
71039;SHT30;58692;43.212;27.908;2023-07-20T10:15:46;37.83;36.48
71039;SHT30;58692;43.212;27.908;2023-07-20T10:18:18;38.22;36.62
71039;SHT30;58692;43.212;27.908;2023-07-20T10:20:50;38.71;35.60
71039;SHT30;58692;43.212;27.908;2023-07-20T10:23:17;38.78;35.83
71039;SHT30;58692;43.212;27.908;2023-07-20T10:25:43;38.03;36.46
71039;SHT30;58692;43.212;27.908;2023-07-20T10:28:10;37.98;36.68
71039;SHT30;58692;43.212;27.908;2023-07-20T10:30:36;38.87;36.03
71039;SHT30;58692;43.212;27.908;2023-07-20T10:33:04;38.98;35.58
71039;SHT30;58692;43.212;27.908;2023-07-20T10:35:30;38.98;35.53
71039;SHT30;58692;43.212;27.908;2023-07-20T10:38:03;39.14;35.57
71039;SHT30;58692;43.212;27.908;2023-07-20T10:40:33;39.17;35.57
71039;SHT30;58692;43.212;27.908;2023-07-20T10:43:01;38.66;36.07
71039;SHT30;58692;43.212;27.908;2023-07-20T10:45:51;39.04;35.81
71039;SHT30;58692;43.212;27.908;2023-07-20T10:50:43;39.31;35.60
71039;SHT30;58692;43.212;27.908;2023-07-20T10:53:14;39.59;35.38
71039;SHT30;58692;43.212;27.908;2023-07-20T10:55:41;39.24;35.55
71039;SHT30;58692;43.212;27.908;2023-07-20T10:58:09;39.75;34.90
71039;SHT30;58692;43.212;27.908;2023-07-20T11:00:35;39.41;35.38
71039;SHT30;58692;43.212;27.908;2023-07-20T11:03:01;39.34;35.27
71039;SHT30;58692;43.212;27.908;2023-07-20T11:05:36;39.93;34.97
71039;SHT30;58692;43.212;27.908;2023-07-20T11:08:04;40.05;34.79
71039;SHT30;58692;43.212;27.908;2023-07-20T11:10:30;40.46;34.41
71039;SHT30;58692;43.212;27.908;2023-07-20T11:13:19;41.00;33.53
71039;SHT30;58692;43.212;27.908;2023-07-20T11:15:46;40.86;34.75
71039;SHT30;58692;43.212;27.908;2023-07-20T11:18:13;40.19;35.54
71039;SHT30;58692;43.212;27.908;2023-07-20T11:20:40;39.85;35.95
71039;SHT30;58692;43.212;27.908;2023-07-20T11:23:06;40.27;35.60
71039;SHT30;58692;43.212;27.908;2023-07-20T11:25:39;37.01;41.22
71039;SHT30;58692;43.212;27.908;2023-07-20T11:28:07;36.22;44.84
71039;SHT30;58692;43.212;27.908;2023-07-20T11:30:34;35.34;46.64
71039;SHT30;58692;43.212;27.908;2023-07-20T11:32:59;34.97;48.66
71039;SHT30;58692;43.212;27.908;2023-07-20T11:35:25;35.58;47.96
71039;SHT30;58692;43.212;27.908;2023-07-20T11:37:50;35.42;49.69
71039;SHT30;58692;43.212;27.908;2023-07-20T11:40:16;35.35;50.32
71039;SHT30;58692;43.212;27.908;2023-07-20T11:42:42;34.49;49.15
71039;SHT30;58692;43.212;27.908;2023-07-20T11:45:09;33.86;49.53
71039;SHT30;58692;43.212;27.908;2023-07-20T11:47:40;33.37;53.26
71039;SHT30;58692;43.212;27.908;2023-07-20T11:50:07;33.91;51.68
71039;SHT30;58692;43.212;27.908;2023-07-20T11:52:33;33.82;52.19
71039;SHT30;58692;43.212;27.908;2023-07-20T11:54:59;33.61;50.91
71039;SHT30;58692;43.212;27.908;2023-07-20T11:57:24;33.31;50.55
71039;SHT30;58692;43.212;27.908;2023-07-20T11:59:54;33.40;52.08
71039;SHT30;58692;43.212;27.908;2023-07-20T12:02:23;33.55;52.17
71039;SHT30;58692;43.212;27.908;2023-07-20T12:04:51;32.67;53.57
71039;SHT30;58692;43.212;27.908;2023-07-20T12:07:18;31.85;55.38
71039;SHT30;58692;43.212;27.908;2023-07-20T12:09:44;32.04;56.13
71039;SHT30;58692;43.212;27.908;2023-07-20T12:12:11;32.13;55.88
71039;SHT30;58692;43.212;27.908;2023-07-20T12:14:37;32.23;55.90
71039;SHT30;58692;43.212;27.908;2023-07-20T12:17:03;31.74;57.09
71039;SHT30;58692;43.212;27.908;2023-07-20T12:19:28;31.67;57.81
71039;SHT30;58692;43.212;27.908;2023-07-20T12:21:57;31.14;57.92
71039;SHT30;58692;43.212;27.908;2023-07-20T12:24:25;30.79;58.34
71039;SHT30;58692;43.212;27.908;2023-07-20T12:26:56;30.87;58.05
71039;SHT30;58692;43.212;27.908;2023-07-20T12:29:23;31.07;58.02
71039;SHT30;58692;43.212;27.908;2023-07-20T12:31:48;31.11;57.09
71039;SHT30;58692;43.212;27.908;2023-07-20T12:34:14;30.88;56.99
71039;SHT30;58692;43.212;27.908;2023-07-20T12:36:40;30.87;57.09
71039;SHT30;58692;43.212;27.908;2023-07-20T12:39:05;30.97;57.51
71039;SHT30;58692;43.212;27.908;2023-07-20T12:41:31;30.80;57.88
71039;SHT30;58692;43.212;27.908;2023-07-20T12:43:56;30.86;57.96
71039;SHT30;58692;43.212;27.908;2023-07-20T12:46:23;31.01;57.55
71039;SHT30;58692;43.212;27.908;2023-07-20T12:48:49;31.01;56.70
71039;SHT30;58692;43.212;27.908;2023-07-20T12:51:14;30.96;56.06
71039;SHT30;58692;43.212;27.908;2023-07-20T12:53:40;31.03;55.52
71039;SHT30;58692;43.212;27.908;2023-07-20T12:56:06;30.94;55.57
71039;SHT30;58692;43.212;27.908;2023-07-20T12:58:32;30.86;55.99
71039;SHT30;58692;43.212;27.908;2023-07-20T13:00:57;30.77;56.16
71039;SHT30;58692;43.212;27.908;2023-07-20T13:03:23;30.69;55.69
71039;SHT30;58692;43.212;27.908;2023-07-20T13:05:51;30.86;55.96
71039;SHT30;58692;43.212;27.908;2023-07-20T13:08:16;30.84;56.32
71039;SHT30;58692;43.212;27.908;2023-07-20T13:10:42;30.69;57.16
71039;SHT30;58692;43.212;27.908;2023-07-20T13:13:08;30.74;56.38
71039;SHT30;58692;43.212;27.908;2023-07-20T13:15:43;30.72;58.44
71039;SHT30;58692;43.212;27.908;2023-07-20T13:18:08;30.73;58.87
71039;SHT30;58692;43.212;27.908;2023-07-20T13:20:34;30.60;58.35
71039;SHT30;58692;43.212;27.908;2023-07-20T13:22:59;30.53;59.26
71039;SHT30;58692;43.212;27.908;2023-07-20T13:25:25;30.26;60.07
71039;SHT30;58692;43.212;27.908;2023-07-20T13:27:51;30.60;59.94
71039;SHT30;58692;43.212;27.908;2023-07-20T13:30:16;30.72;59.36
71039;SHT30;58692;43.212;27.908;2023-07-20T13:32:43;30.49;58.12
71039;SHT30;58692;43.212;27.908;2023-07-20T13:35:10;30.46;56.70
71039;SHT30;58692;43.212;27.908;2023-07-20T13:37:36;30.36;56.45
71039;SHT30;58692;43.212;27.908;2023-07-20T13:40:01;30.56;56.47
71039;SHT30;58692;43.212;27.908;2023-07-20T13:42:28;30.46;57.43
71039;SHT30;58692;43.212;27.908;2023-07-20T13:44:54;30.42;57.81
71039;SHT30;58692;43.212;27.908;2023-07-20T13:47:19;30.33;58.37
71039;SHT30;58692;43.212;27.908;2023-07-20T13:49:45;30.26;58.79
71039;SHT30;58692;43.212;27.908;2023-07-20T13:52:10;30.29;59.30
71039;SHT30;58692;43.212;27.908;2023-07-20T13:54:36;30.40;60.24
71039;SHT30;58692;43.212;27.908;2023-07-20T13:57:01;30.39;59.81
71039;SHT30;58692;43.212;27.908;2023-07-20T13:59:27;30.29;59.59
71039;SHT30;58692;43.212;27.908;2023-07-20T14:01:53;30.21;58.88
71039;SHT30;58692;43.212;27.908;2023-07-20T14:04:18;30.21;59.11
71039;SHT30;58692;43.212;27.908;2023-07-20T14:06:44;30.33;58.49
71039;SHT30;58692;43.212;27.908;2023-07-20T14:09:09;30.29;58.33
71039;SHT30;58692;43.212;27.908;2023-07-20T14:11:35;30.33;57.47
71039;SHT30;58692;43.212;27.908;2023-07-20T14:14:00;30.25;57.51
71039;SHT30;58692;43.212;27.908;2023-07-20T14:16:26;30.12;58.42
71039;SHT30;58692;43.212;27.908;2023-07-20T14:18:52;30.26;57.25
71039;SHT30;58692;43.212;27.908;2023-07-20T14:21:19;30.45;56.59
71039;SHT30;58692;43.212;27.908;2023-07-20T14:23:46;30.33;56.32
71039;SHT30;58692;43.212;27.908;2023-07-20T14:26:13;30.42;56.28
71039;SHT30;58692;43.212;27.908;2023-07-20T14:28:38;30.26;55.80
71039;SHT30;58692;43.212;27.908;2023-07-20T14:31:04;30.16;56.10
71039;SHT30;58692;43.212;27.908;2023-07-20T14:33:30;30.15;56.23
71039;SHT30;58692;43.212;27.908;2023-07-20T14:35:56;30.05;56.75
71039;SHT30;58692;43.212;27.908;2023-07-20T14:38:22;30.16;56.63
71039;SHT30;58692;43.212;27.908;2023-07-20T14:40:47;30.25;56.53
71039;SHT30;58692;43.212;27.908;2023-07-20T14:43:13;30.29;56.28
71039;SHT30;58692;43.212;27.908;2023-07-20T14:45:40;30.19;55.94
71039;SHT30;58692;43.212;27.908;2023-07-20T14:48:06;30.13;56.26
71039;SHT30;58692;43.212;27.908;2023-07-20T14:50:31;30.16;55.69
71039;SHT30;58692;43.212;27.908;2023-07-20T14:52:57;30.22;55.80
71039;SHT30;58692;43.212;27.908;2023-07-20T14:55:22;30.18;55.81
71039;SHT30;58692;43.212;27.908;2023-07-20T14:57:48;30.31;55.44
71039;SHT30;58692;43.212;27.908;2023-07-20T15:00:14;30.39;55.58
71039;SHT30;58692;43.212;27.908;2023-07-20T15:02:40;30.16;56.21
71039;SHT30;58692;43.212;27.908;2023-07-20T15:05:07;30.06;57.36
71039;SHT30;58692;43.212;27.908;2023-07-20T15:07:32;30.12;58.80
71039;SHT30;58692;43.212;27.908;2023-07-20T15:09:58;30.05;60.30
71039;SHT30;58692;43.212;27.908;2023-07-20T15:12:23;29.74;62.44
71039;SHT30;58692;43.212;27.908;2023-07-20T15:15:03;29.58;64.72
71039;SHT30;58692;43.212;27.908;2023-07-20T15:17:30;29.19;68.68
71039;SHT30;58692;43.212;27.908;2023-07-20T15:19:56;29.06;70.94
71039;SHT30;58692;43.212;27.908;2023-07-20T15:22:21;28.78;72.81